sensor_id;sensor_type;location;lat;lon;timestamp;pressure;altitude;pressure_sealevel;temperature;humidity
75938;BME280;64615;32.062;34.834;2023-02-13T00:01:28;101761.22;;;19.59;48.35
75938;BME280;64615;32.062;34.834;2023-02-13T00:03:53;101759.81;;;19.57;48.02
75938;BME280;64615;32.062;34.834;2023-02-13T00:06:19;101758.72;;;19.58;47.94
75938;BME280;64615;32.062;34.834;2023-02-13T00:08:45;101744.44;;;19.57;48.10
75938;BME280;64615;32.062;34.834;2023-02-13T00:11:10;101746.06;;;19.58;47.89
75938;BME280;64615;32.062;34.834;2023-02-13T00:13:36;101743.59;;;19.57;48.18
75938;BME280;64615;32.062;34.834;2023-02-13T00:16:03;101741.94;;;19.56;47.88
75938;BME280;64615;32.062;34.834;2023-02-13T00:18:31;101745.66;;;19.55;48.01
75938;BME280;64615;32.062;34.834;2023-02-13T00:21:09;101737.78;;;19.53;48.12
75938;BME280;64615;32.062;34.834;2023-02-13T00:23:36;101739.63;;;19.53;48.24
75938;BME280;64615;32.062;34.834;2023-02-13T00:26:12;101747.34;;;19.56;48.34
75938;BME280;64615;32.062;34.834;2023-02-13T00:28:39;101740.91;;;19.57;48.06
75938;BME280;64615;32.062;34.834;2023-02-13T00:31:05;101740.66;;;19.58;48.12
75938;BME280;64615;32.062;34.834;2023-02-13T00:33:32;101738.78;;;19.59;47.88
75938;BME280;64615;32.062;34.834;2023-02-13T00:36:18;101735.69;;;19.62;47.98
75938;BME280;64615;32.062;34.834;2023-02-13T00:38:45;101737.53;;;19.68;47.97
75938;BME280;64615;32.062;34.834;2023-02-13T00:41:11;101729.19;;;19.69;47.68
75938;BME280;64615;32.062;34.834;2023-02-13T00:43:37;101738.31;;;19.75;47.60
75938;BME280;64615;32.062;34.834;2023-02-13T00:46:03;101736.06;;;19.72;47.71
75938;BME280;64615;32.062;34.834;2023-02-13T00:48:30;101738.97;;;19.64;47.67
75938;BME280;64615;32.062;34.834;2023-02-13T00:50:57;101731.91;;;19.63;47.53
75938;BME280;64615;32.062;34.834;2023-02-13T00:53:24;101726.94;;;19.60;47.57
75938;BME280;64615;32.062;34.834;2023-02-13T00:55:50;101736.31;;;19.57;47.90
75938;BME280;64615;32.062;34.834;2023-02-13T00:58:17;101726.13;;;19.53;47.82
75938;BME280;64615;32.062;34.834;2023-02-13T01:00:43;101729.25;;;19.56;47.64
75938;BME280;64615;32.062;34.834;2023-02-13T01:03:12;101734.47;;;19.51;47.80
75938;BME280;64615;32.062;34.834;2023-02-13T01:05:38;101729.91;;;19.52;47.69
75938;BME280;64615;32.062;34.834;2023-02-13T01:08:04;101719.72;;;19.47;47.65
75938;BME280;64615;32.062;34.834;2023-02-13T01:10:30;101727.81;;;19.47;47.48
75938;BME280;64615;32.062;34.834;2023-02-13T01:12:56;101722.22;;;19.49;47.43
75938;BME280;64615;32.062;34.834;2023-02-13T01:15:22;101722.41;;;19.47;47.54
75938;BME280;64615;32.062;34.834;2023-02-13T01:17:48;101723.47;;;19.46;47.61
75938;BME280;64615;32.062;34.834;2023-02-13T01:20:14;101724.50;;;19.45;47.46
75938;BME280;64615;32.062;34.834;2023-02-13T01:22:40;101731.13;;;19.42;47.34
75938;BME280;64615;32.062;34.834;2023-02-13T01:25:08;101728.22;;;19.44;47.53
75938;BME280;64615;32.062;34.834;2023-02-13T01:27:34;101728.22;;;19.44;47.33
75938;BME280;64615;32.062;34.834;2023-02-13T01:30:00;101730.09;;;19.43;47.58
75938;BME280;64615;32.062;34.834;2023-02-13T01:32:26;101725.97;;;19.41;47.87
75938;BME280;64615;32.062;34.834;2023-02-13T01:34:51;101721.97;;;19.43;47.70
75938;BME280;64615;32.062;34.834;2023-02-13T01:37:17;101727.38;;;19.43;47.60
75938;BME280;64615;32.062;34.834;2023-02-13T01:39:43;101724.50;;;19.45;47.55
75938;BME280;64615;32.062;34.834;2023-02-13T01:42:15;101717.41;;;19.44;47.35
75938;BME280;64615;32.062;34.834;2023-02-13T01:44:53;101727.00;;;19.47;47.32
75938;BME280;64615;32.062;34.834;2023-02-13T01:50:09;101727.22;;;19.45;47.56
75938;BME280;64615;32.062;34.834;2023-02-13T01:52:37;101717.41;;;19.44;47.22
75938;BME280;64615;32.062;34.834;2023-02-13T01:55:06;101719.13;;;19.45;47.32
75938;BME280;64615;32.062;34.834;2023-02-13T01:57:32;101723.03;;;19.42;47.14
75938;BME280;64615;32.062;34.834;2023-02-13T02:00:06;101709.53;;;19.42;47.20
75938;BME280;64615;32.062;34.834;2023-02-13T02:02:36;101717.63;;;19.42;47.08
75938;BME280;64615;32.062;34.834;2023-02-13T02:05:05;101711.81;;;19.39;47.04
75938;BME280;64615;32.062;34.834;2023-02-13T02:07:32;101717.63;;;19.42;47.34
75938;BME280;64615;32.062;34.834;2023-02-13T02:10:02;101711.38;;;19.42;47.20
75938;BME280;64615;32.062;34.834;2023-02-13T02:15:15;101714.31;;;19.40;46.94
75938;BME280;64615;32.062;34.834;2023-02-13T02:17:40;101720.97;;;19.38;46.98
75938;BME280;64615;32.062;34.834;2023-02-13T02:20:33;101718.50;;;19.36;47.13
75938;BME280;64615;32.062;34.834;2023-02-13T02:29:05;101728.03;;;19.32;47.05
75938;BME280;64615;32.062;34.834;2023-02-13T02:32:08;101721.59;;;19.33;46.84
75938;BME280;64615;32.062;34.834;2023-02-13T02:37:44;101719.94;;;19.32;46.72
75938;BME280;64615;32.062;34.834;2023-02-13T02:40:25;101724.50;;;19.32;47.04
75938;BME280;64615;32.062;34.834;2023-02-13T02:43:24;101726.59;;;19.36;47.12
75938;BME280;64615;32.062;34.834;2023-02-13T02:49:14;101729.06;;;19.38;46.78
75938;BME280;64615;32.062;34.834;2023-02-13T02:52:12;101734.47;;;19.38;46.76
75938;BME280;64615;32.062;34.834;2023-02-13T02:54:52;101729.06;;;19.38;46.72
75938;BME280;64615;32.062;34.834;2023-02-13T02:58:04;101739.88;;;19.38;46.82
75938;BME280;64615;32.062;34.834;2023-02-13T03:00:54;101741.53;;;19.39;46.85
75938;BME280;64615;32.062;34.834;2023-02-13T03:03:41;101749.84;;;19.37;46.68
75938;BME280;64615;32.062;34.834;2023-02-13T03:06:32;101746.53;;;19.35;46.68
75938;BME280;64615;32.062;34.834;2023-02-13T03:09:03;101752.75;;;19.36;46.58
75938;BME280;64615;32.062;34.834;2023-02-13T03:11:52;101762.31;;;19.32;46.74
75938;BME280;64615;32.062;34.834;2023-02-13T03:14:37;101759.59;;;19.32;46.64
75938;BME280;64615;32.062;34.834;2023-02-13T03:17:04;101756.06;;;19.31;46.59
75938;BME280;64615;32.062;34.834;2023-02-13T03:25:42;101756.31;;;19.30;46.64
75938;BME280;64615;32.062;34.834;2023-02-13T03:34:06;101757.13;;;19.30;46.38
75938;BME280;64615;32.062;34.834;2023-02-13T03:42:22;101747.78;;;19.26;46.41
75938;BME280;64615;32.062;34.834;2023-02-13T03:44:59;101763.78;;;19.28;46.20
75938;BME280;64615;32.062;34.834;2023-02-13T03:47:46;101763.97;;;19.26;46.45
75938;BME280;64615;32.062;34.834;2023-02-13T03:50:14;101765.03;;;19.25;46.27
75938;BME280;64615;32.062;34.834;2023-02-13T03:52:51;101769.59;;;19.25;46.45
75938;BME280;64615;32.062;34.834;2023-02-13T03:55:21;101775.00;;;19.25;46.40
75938;BME280;64615;32.062;34.834;2023-02-13T03:58:13;101767.53;;;19.20;46.52
75938;BME280;64615;32.062;34.834;2023-02-13T04:01:00;101777.06;;;19.23;46.42
75938;BME280;64615;32.062;34.834;2023-02-13T04:06:20;101776.25;;;19.22;46.32
75938;BME280;64615;32.062;34.834;2023-02-13T04:08:46;101778.94;;;19.22;46.32
75938;BME280;64615;32.062;34.834;2023-02-13T04:11:17;101775.41;;;19.22;46.21
75938;BME280;64615;32.062;34.834;2023-02-13T04:13:56;101781.03;;;19.20;46.23
75938;BME280;64615;32.062;34.834;2023-02-13T04:16:32;101779.38;;;19.19;46.12
75938;BME280;64615;32.062;34.834;2023-02-13T04:19:00;101784.56;;;19.21;46.26
75938;BME280;64615;32.062;34.834;2023-02-13T04:21:26;101783.75;;;19.20;46.07
75938;BME280;64615;32.062;34.834;2023-02-13T04:23:52;101783.94;;;19.19;46.13
75938;BME280;64615;32.062;34.834;2023-02-13T04:26:21;101787.47;;;19.19;46.08
75938;BME280;64615;32.062;34.834;2023-02-13T04:28:47;101785.59;;;19.20;46.04
75938;BME280;64615;32.062;34.834;2023-02-13T04:31:13;101784.97;;;19.18;46.09
75938;BME280;64615;32.062;34.834;2023-02-13T04:33:39;101792.25;;;19.17;45.91
75938;BME280;64615;32.062;34.834;2023-02-13T04:36:05;101797.63;;;19.17;46.17
75938;BME280;64615;32.062;34.834;2023-02-13T04:38:30;101788.50;;;19.18;46.07
75938;BME280;64615;32.062;34.834;2023-02-13T04:40:56;101791.41;;;19.17;45.84
75938;BME280;64615;32.062;34.834;2023-02-13T04:43:22;101789.34;;;19.19;45.76
75938;BME280;64615;32.062;34.834;2023-02-13T04:45:48;101795.97;;;19.16;45.98
75938;BME280;64615;32.062;34.834;2023-02-13T04:48:14;101788.09;;;19.15;46.01
75938;BME280;64615;32.062;34.834;2023-02-13T04:50:40;101797.84;;;19.16;46.03
75938;BME280;64615;32.062;34.834;2023-02-13T04:53:06;101801.38;;;19.16;46.03
75938;BME280;64615;32.062;34.834;2023-02-13T04:55:32;101796.41;;;19.20;46.20
75938;BME280;64615;32.062;34.834;2023-02-13T04:57:58;101807.81;;;19.22;46.32
75938;BME280;64615;32.062;34.834;2023-02-13T05:00:26;101794.69;;;19.32;46.67
75938;BME280;64615;32.062;34.834;2023-02-13T05:02:52;101802.81;;;19.38;46.84
75938;BME280;64615;32.062;34.834;2023-02-13T05:05:18;101797.78;;;19.42;47.11
75938;BME280;64615;32.062;34.834;2023-02-13T05:07:43;101808.81;;;19.47;47.10
75938;BME280;64615;32.062;34.834;2023-02-13T05:10:10;101805.28;;;19.60;47.32
75938;BME280;64615;32.062;34.834;2023-02-13T05:12:36;101807.78;;;19.55;47.41
75938;BME280;64615;32.062;34.834;2023-02-13T05:15:04;101808.63;;;19.55;47.16
75938;BME280;64615;32.062;34.834;2023-02-13T05:17:30;101819.22;;;19.57;47.48
75938;BME280;64615;32.062;34.834;2023-02-13T05:19:56;101825.03;;;19.60;47.87
75938;BME280;64615;32.062;34.834;2023-02-13T05:22:21;101821.69;;;19.58;47.99
75938;BME280;64615;32.062;34.834;2023-02-13T05:25:05;101824.81;;;19.55;48.14
75938;BME280;64615;32.062;34.834;2023-02-13T05:27:31;101827.13;;;19.52;48.12
75938;BME280;64615;32.062;34.834;2023-02-13T05:29:56;101823.59;;;19.51;48.07
75938;BME280;64615;32.062;34.834;2023-02-13T05:32:22;101829.16;;;19.43;47.76
75938;BME280;64615;32.062;34.834;2023-02-13T05:34:47;101828.56;;;19.48;47.69
75938;BME280;64615;32.062;34.834;2023-02-13T05:37:13;101835.63;;;19.49;47.38
75938;BME280;64615;32.062;34.834;2023-02-13T05:39:39;101839.78;;;19.51;47.32
75938;BME280;64615;32.062;34.834;2023-02-13T05:42:04;101846.00;;;19.58;48.42
75938;BME280;64615;32.062;34.834;2023-02-13T05:44:30;101845.41;;;19.56;48.33
75938;BME280;64615;32.062;34.834;2023-02-13T05:46:56;101847.03;;;19.70;48.05
75938;BME280;64615;32.062;34.834;2023-02-13T05:49:22;101848.25;;;19.74;48.09
75938;BME280;64615;32.062;34.834;2023-02-13T05:51:48;101855.31;;;19.75;47.79
75938;BME280;64615;32.062;34.834;2023-02-13T05:54:16;101842.63;;;19.82;47.64
75938;BME280;64615;32.062;34.834;2023-02-13T05:56:41;101848.88;;;19.83;47.48
75938;BME280;64615;32.062;34.834;2023-02-13T05:59:07;101847.81;;;19.84;47.54
75938;BME280;64615;32.062;34.834;2023-02-13T06:01:32;101854.28;;;19.83;47.32
75938;BME280;64615;32.062;34.834;2023-02-13T06:03:58;101842.63;;;19.82;47.31
75938;BME280;64615;32.062;34.834;2023-02-13T06:06:24;101853.00;;;19.85;47.36
75938;BME280;64615;32.062;34.834;2023-02-13T06:08:50;101845.09;;;19.84;47.43
75938;BME280;64615;32.062;34.834;2023-02-13T06:11:16;101845.34;;;19.82;47.12
75938;BME280;64615;32.062;34.834;2023-02-13T06:13:42;101849.91;;;19.82;47.19
75938;BME280;64615;32.062;34.834;2023-02-13T06:16:11;101850.31;;;19.79;47.41
75938;BME280;64615;32.062;34.834;2023-02-13T06:18:37;101842.19;;;19.79;47.22
75938;BME280;64615;32.062;34.834;2023-02-13T06:21:04;101850.53;;;19.77;47.58
75938;BME280;64615;32.062;34.834;2023-02-13T06:23:30;101852.41;;;19.77;47.33
75938;BME280;64615;32.062;34.834;2023-02-13T06:25:56;101855.13;;;19.77;47.00
75938;BME280;64615;32.062;34.834;2023-02-13T06:28:25;101841.81;;;19.75;47.14
75938;BME280;64615;32.062;34.834;2023-02-13T06:30:51;101853.25;;;19.77;47.00
75938;BME280;64615;32.062;34.834;2023-02-13T06:33:16;101848.25;;;19.74;46.95
75938;BME280;64615;32.062;34.834;2023-02-13T06:35:42;101845.97;;;19.71;46.91
75938;BME280;64615;32.062;34.834;2023-02-13T06:38:08;101852.22;;;19.72;46.94
75938;BME280;64615;32.062;34.834;2023-02-13T06:40:33;101845.34;;;19.69;47.01
75938;BME280;64615;32.062;34.834;2023-02-13T06:42:59;101844.13;;;19.72;46.96
75938;BME280;64615;32.062;34.834;2023-02-13T06:45:25;101848.69;;;19.71;46.83
75938;BME280;64615;32.062;34.834;2023-02-13T06:47:50;101849.09;;;19.68;46.83
75938;BME280;64615;32.062;34.834;2023-02-13T06:50:16;101856.41;;;19.68;47.08
75938;BME280;64615;32.062;34.834;2023-02-13T06:52:46;101853.47;;;19.63;46.83
75938;BME280;64615;32.062;34.834;2023-02-13T06:55:13;101853.91;;;19.60;47.00
75938;BME280;64615;32.062;34.834;2023-02-13T06:57:38;101854.09;;;19.58;47.03
75938;BME280;64615;32.062;34.834;2023-02-13T07:00:05;101846.22;;;19.57;46.83
75938;BME280;64615;32.062;34.834;2023-02-13T07:02:31;101846.44;;;19.55;46.92
75938;BME280;64615;32.062;34.834;2023-02-13T07:04:57;101850.16;;;19.54;46.83
75938;BME280;64615;32.062;34.834;2023-02-13T07:07:22;101846.63;;;19.54;46.94
75938;BME280;64615;32.062;34.834;2023-02-13T07:09:48;101853.91;;;19.53;46.85
75938;BME280;64615;32.062;34.834;2023-02-13T07:12:14;101849.97;;;19.49;46.60
75938;BME280;64615;32.062;34.834;2023-02-13T07:14:39;101860.56;;;19.51;46.77
75938;BME280;64615;32.062;34.834;2023-02-13T07:17:05;101848.94;;;19.50;46.43
75938;BME280;64615;32.062;34.834;2023-02-13T07:19:31;101844.56;;;19.49;46.40
75938;BME280;64615;32.062;34.834;2023-02-13T07:21:57;101855.78;;;19.53;46.51
75938;BME280;64615;32.062;34.834;2023-02-13T07:24:22;101858.47;;;19.53;46.32
75938;BME280;64615;32.062;34.834;2023-02-13T07:26:48;101854.97;;;19.52;46.16
75938;BME280;64615;32.062;34.834;2023-02-13T07:29:14;101859.09;;;19.55;46.50
75938;BME280;64615;32.062;34.834;2023-02-13T07:31:39;101861.78;;;19.68;45.61
75938;BME280;64615;32.062;34.834;2023-02-13T07:34:05;101862.78;;;19.80;45.45
75938;BME280;64615;32.062;34.834;2023-02-13T07:36:31;101858.22;;;19.87;45.35
75938;BME280;64615;32.062;34.834;2023-02-13T07:38:56;101857.50;;;20.05;44.79
75938;BME280;64615;32.062;34.834;2023-02-13T07:41:22;101859.44;;;19.91;45.11
75938;BME280;64615;32.062;34.834;2023-02-13T07:43:51;101858.41;;;19.85;45.30
75938;BME280;64615;32.062;34.834;2023-02-13T07:46:17;101858.41;;;19.85;45.39
75938;BME280;64615;32.062;34.834;2023-02-13T07:48:43;101854.88;;;19.85;45.09
75938;BME280;64615;32.062;34.834;2023-02-13T07:51:08;101846.34;;;19.88;45.38
75938;BME280;64615;32.062;34.834;2023-02-13T07:53:34;101854.84;;;19.92;45.17
75938;BME280;64615;32.062;34.834;2023-02-13T07:56:09;101844.88;;;19.92;45.26
75938;BME280;64615;32.062;34.834;2023-02-13T07:58:36;101851.53;;;19.89;45.29
75938;BME280;64615;32.062;34.834;2023-02-13T08:01:10;101840.50;;;19.91;45.24
75938;BME280;64615;32.062;34.834;2023-02-13T08:03:36;101843.00;;;19.93;44.83
75938;BME280;64615;32.062;34.834;2023-02-13T08:06:03;101845.28;;;19.96;45.26
75938;BME280;64615;32.062;34.834;2023-02-13T08:08:29;101840.69;;;19.96;44.99
75938;BME280;64615;32.062;34.834;2023-02-13T08:10:55;101837.19;;;19.89;45.10
75938;BME280;64615;32.062;34.834;2023-02-13T08:13:41;101843.22;;;19.91;45.24
75938;BME280;64615;32.062;34.834;2023-02-13T08:16:08;101836.78;;;19.92;44.94
75938;BME280;64615;32.062;34.834;2023-02-13T08:18:33;101834.47;;;19.96;45.12
75938;BME280;64615;32.062;34.834;2023-02-13T08:21:01;101827.81;;;19.98;44.92
75938;BME280;64615;32.062;34.834;2023-02-13T08:23:27;101814.72;;;19.95;45.29
75938;BME280;64615;32.062;34.834;2023-02-13T08:25:53;101829.69;;;19.98;44.91
75938;BME280;64615;32.062;34.834;2023-02-13T08:28:18;101829.25;;;19.94;45.01
75938;BME280;64615;32.062;34.834;2023-02-13T08:30:44;101817.03;;;19.92;44.82
75938;BME280;64615;32.062;34.834;2023-02-13T08:33:09;101822.00;;;19.95;44.52
75938;BME280;64615;32.062;34.834;2023-02-13T08:35:35;101811.19;;;19.95;44.67
75938;BME280;64615;32.062;34.834;2023-02-13T08:38:02;101819.91;;;20.03;44.07
75938;BME280;64615;32.062;34.834;2023-02-13T08:40:28;101809.28;;;20.02;43.69
75938;BME280;64615;32.062;34.834;2023-02-13T08:43:01;101809.28;;;20.02;43.74
75938;BME280;64615;32.062;34.834;2023-02-13T08:45:27;101800.16;;;20.03;43.51
75938;BME280;64615;32.062;34.834;2023-02-13T08:47:57;101791.19;;;20.02;43.35
75938;BME280;64615;32.062;34.834;2023-02-13T08:50:23;101803.06;;;20.01;43.21
75938;BME280;64615;32.062;34.834;2023-02-13T08:52:49;101801.38;;;20.00;43.28
75938;BME280;64615;32.062;34.834;2023-02-13T08:55:15;101793.28;;;20.00;43.46
75938;BME280;64615;32.062;34.834;2023-02-13T08:57:40;101791.84;;;19.98;42.95
75938;BME280;64615;32.062;34.834;2023-02-13T09:00:06;101791.03;;;19.97;43.00
75938;BME280;64615;32.062;34.834;2023-02-13T09:02:33;101782.06;;;19.97;43.08
75938;BME280;64615;32.062;34.834;2023-02-13T09:04:59;101774.81;;;19.97;43.07
75938;BME280;64615;32.062;34.834;2023-02-13T09:07:24;101778.34;;;19.98;43.38
75938;BME280;64615;32.062;34.834;2023-02-13T09:09:50;101768.56;;;19.97;43.30
75938;BME280;64615;32.062;34.834;2023-02-13T09:12:16;101770.03;;;19.99;43.55
75938;BME280;64615;32.062;34.834;2023-02-13T09:14:41;101762.72;;;20.00;43.38
75938;BME280;64615;32.062;34.834;2023-02-13T09:17:07;101764.81;;;19.98;43.63
75938;BME280;64615;32.062;34.834;2023-02-13T09:19:32;101766.69;;;19.97;42.96
75938;BME280;64615;32.062;34.834;2023-02-13T09:21:58;101769.00;;;19.94;43.17
75938;BME280;64615;32.062;34.834;2023-02-13T09:24:24;101753.38;;;19.96;43.40
75938;BME280;64615;32.062;34.834;2023-02-13T09:26:50;101756.09;;;19.96;43.25
75938;BME280;64615;32.062;34.834;2023-02-13T09:29:16;101764.19;;;19.96;43.51
75938;BME280;64615;32.062;34.834;2023-02-13T09:31:41;101746.13;;;19.96;43.36
75938;BME280;64615;32.062;34.834;2023-02-13T09:34:07;101754.44;;;19.95;43.18
75938;BME280;64615;32.062;34.834;2023-02-13T09:36:33;101747.16;;;19.95;43.22
75938;BME280;64615;32.062;34.834;2023-02-13T09:39:00;101737.16;;;19.96;43.16
75938;BME280;64615;32.062;34.834;2023-02-13T09:41:52;101737.38;;;19.94;43.04
75938;BME280;64615;32.062;34.834;2023-02-13T09:44:35;101734.09;;;19.92;42.78
75938;BME280;64615;32.062;34.834;2023-02-13T09:47:18;101725.78;;;19.94;42.90
75938;BME280;64615;32.062;34.834;2023-02-13T09:49:52;101727.41;;;19.95;42.78
75938;BME280;64615;32.062;34.834;2023-02-13T09:52:19;101721.16;;;19.94;42.96
75938;BME280;64615;32.062;34.834;2023-02-13T09:54:44;101713.50;;;19.91;43.12
75938;BME280;64615;32.062;34.834;2023-02-13T09:57:23;101695.63;;;19.90;42.34
75938;BME280;64615;32.062;34.834;2023-02-13T10:00:41;101706.22;;;19.92;42.66
75938;BME280;64615;32.062;34.834;2023-02-13T10:05:57;101699.44;;;19.82;42.44
75938;BME280;64615;32.062;34.834;2023-02-13T10:08:51;101694.44;;;19.79;42.49
75938;BME280;64615;32.062;34.834;2023-02-13T10:17:08;101693.41;;;19.80;42.27
75938;BME280;64615;32.062;34.834;2023-02-13T10:19:47;101683.41;;;19.81;42.54
75938;BME280;64615;32.062;34.834;2023-02-13T10:22:20;101676.53;;;19.85;42.35
75938;BME280;64615;32.062;34.834;2023-02-13T10:24:54;101669.47;;;19.84;42.30
75938;BME280;64615;32.062;34.834;2023-02-13T10:27:24;101663.25;;;19.83;42.21
75938;BME280;64615;32.062;34.834;2023-02-13T10:30:04;101665.72;;;19.85;42.14
75938;BME280;64615;32.062;34.834;2023-02-13T10:33:03;101659.72;;;19.83;42.40
75938;BME280;64615;32.062;34.834;2023-02-13T10:36:01;101650.78;;;19.82;42.47
75938;BME280;64615;32.062;34.834;2023-02-13T10:38:32;101659.94;;;19.81;42.60
75938;BME280;64615;32.062;34.834;2023-02-13T10:47:12;101640.63;;;19.78;43.07
75938;BME280;64615;32.062;34.834;2023-02-13T10:50:25;101638.75;;;19.78;43.02
75938;BME280;64615;32.062;34.834;2023-02-13T10:58:31;101632.34;;;19.73;43.04
75938;BME280;64615;32.062;34.834;2023-02-13T11:03:28;101635.06;;;19.73;43.20
75938;BME280;64615;32.062;34.834;2023-02-13T11:05:56;101630.03;;;19.76;42.92
75938;BME280;64615;32.062;34.834;2023-02-13T11:08:31;101622.97;;;19.75;43.24
75938;BME280;64615;32.062;34.834;2023-02-13T11:10:57;101627.34;;;19.76;42.98
75938;BME280;64615;32.062;34.834;2023-02-13T11:13:28;101627.50;;;19.81;43.40
75938;BME280;64615;32.062;34.834;2023-02-13T11:16:08;101629.75;;;19.84;43.64
75938;BME280;64615;32.062;34.834;2023-02-13T11:18:40;101620.03;;;19.83;44.15
75938;BME280;64615;32.062;34.834;2023-02-13T11:23:39;101619.75;;;19.92;44.18
75938;BME280;64615;32.062;34.834;2023-02-13T11:26:35;101610.28;;;20.07;44.45
75938;BME280;64615;32.062;34.834;2023-02-13T11:29:05;101597.63;;;20.26;43.88
75938;BME280;64615;32.062;34.834;2023-02-13T11:31:40;101605.53;;;20.27;43.75
75938;BME280;64615;32.062;34.834;2023-02-13T11:36:51;101588.84;;;20.37;43.62
75938;BME280;64615;32.062;34.834;2023-02-13T11:39:19;101594.56;;;20.47;43.00
75938;BME280;64615;32.062;34.834;2023-02-13T11:41:46;101580.63;;;20.50;43.25
75938;BME280;64615;32.062;34.834;2023-02-13T11:44:25;101597.38;;;20.59;43.04
75938;BME280;64615;32.062;34.834;2023-02-13T11:46:54;101601.75;;;20.60;43.03
75938;BME280;64615;32.062;34.834;2023-02-13T11:49:25;101588.56;;;20.63;42.94
75938;BME280;64615;32.062;34.834;2023-02-13T11:51:54;101584.47;;;20.61;43.25
75938;BME280;64615;32.062;34.834;2023-02-13T11:54:35;101576.09;;;20.62;43.21
75938;BME280;64615;32.062;34.834;2023-02-13T11:57:23;101582.75;;;20.66;43.41
75938;BME280;64615;32.062;34.834;2023-02-13T11:59:52;101581.44;;;20.69;43.10
75938;BME280;64615;32.062;34.834;2023-02-13T12:02:19;101572.91;;;20.72;43.25
75938;BME280;64615;32.062;34.834;2023-02-13T12:04:47;101570.41;;;20.70;43.19
75938;BME280;64615;32.062;34.834;2023-02-13T12:10:00;101569.50;;;20.77;43.37
75938;BME280;64615;32.062;34.834;2023-02-13T12:12:35;101571.38;;;20.76;43.35
75938;BME280;64615;32.062;34.834;2023-02-13T12:15:18;101567.03;;;20.75;43.37
75938;BME280;64615;32.062;34.834;2023-02-13T12:17:49;101558.91;;;20.75;43.38
75938;BME280;64615;32.062;34.834;2023-02-13T12:20:18;101564.31;;;20.75;43.41
75938;BME280;64615;32.062;34.834;2023-02-13T12:28:02;101572.22;;;20.77;43.34
75938;BME280;64615;32.062;34.834;2023-02-13T12:30:33;101584.69;;;20.78;43.29
75938;BME280;64615;32.062;34.834;2023-02-13T12:50:55;101564.19;;;20.88;44.23
75938;BME280;64615;32.062;34.834;2023-02-13T12:53:44;101565.44;;;20.86;44.52
75938;BME280;64615;32.062;34.834;2023-02-13T12:56:22;101576.88;;;20.88;44.29
75938;BME280;64615;32.062;34.834;2023-02-13T13:18:31;101559.28;;;20.60;45.47
75938;BME280;64615;32.062;34.834;2023-02-13T13:24:02;101537.91;;;20.52;46.04
75938;BME280;64615;32.062;34.834;2023-02-13T13:26:45;101545.75;;;20.60;48.13
75938;BME280;64615;32.062;34.834;2023-02-13T13:29:41;101547.41;;;20.80;47.54
75938;BME280;64615;32.062;34.834;2023-02-13T13:32:15;101545.69;;;20.67;47.16
75938;BME280;64615;32.062;34.834;2023-02-13T13:34:43;101546.34;;;20.62;47.33
75938;BME280;64615;32.062;34.834;2023-02-13T13:39:53;101552.53;;;20.51;47.38
75938;BME280;64615;32.062;34.834;2023-02-13T13:50:41;101547.84;;;20.40;47.40
75938;BME280;64615;32.062;34.834;2023-02-13T13:53:19;101543.91;;;20.36;47.42
75938;BME280;64615;32.062;34.834;2023-02-13T13:58:35;101556.22;;;20.32;47.32
75938;BME280;64615;32.062;34.834;2023-02-13T14:01:26;101563.25;;;20.40;47.80
75938;BME280;64615;32.062;34.834;2023-02-13T14:14:51;101569.53;;;20.34;47.66
75938;BME280;64615;32.062;34.834;2023-02-13T14:20:35;101562.06;;;20.29;47.88
75938;BME280;64615;32.062;34.834;2023-02-13T14:23:32;101577.09;;;20.25;47.99
75938;BME280;64615;32.062;34.834;2023-02-13T14:26:40;101573.13;;;20.21;47.54
75938;BME280;64615;32.062;34.834;2023-02-13T14:29:22;101570.22;;;20.22;47.56
75938;BME280;64615;32.062;34.834;2023-02-13T14:32:00;101568.56;;;20.21;47.36
75938;BME280;64615;32.062;34.834;2023-02-13T14:34:37;101573.38;;;20.19;47.19
75938;BME280;64615;32.062;34.834;2023-02-13T14:39:35;101576.56;;;20.10;47.19
75938;BME280;64615;32.062;34.834;2023-02-13T14:42:25;101573.69;;;20.05;47.25
75938;BME280;64615;32.062;34.834;2023-02-13T14:44:56;101583.53;;;19.99;47.09
75938;BME280;64615;32.062;34.834;2023-02-13T14:47:30;101588.31;;;19.97;47.10
75938;BME280;64615;32.062;34.834;2023-02-13T14:50:00;101584.41;;;19.93;47.19
75938;BME280;64615;32.062;34.834;2023-02-13T14:52:37;101579.44;;;19.90;47.14
75938;BME280;64615;32.062;34.834;2023-02-13T14:55:15;101596.69;;;19.89;47.11
75938;BME280;64615;32.062;34.834;2023-02-13T14:57:44;101594.22;;;19.87;46.96
75938;BME280;64615;32.062;34.834;2023-02-13T15:02:54;101602.38;;;19.81;47.01
75938;BME280;64615;32.062;34.834;2023-02-13T15:05:31;101594.25;;;19.81;46.85
75938;BME280;64615;32.062;34.834;2023-02-13T15:10:32;101601.16;;;19.77;46.72
75938;BME280;64615;32.062;34.834;2023-02-13T15:12:59;101596.00;;;19.69;46.57
75938;BME280;64615;32.062;34.834;2023-02-13T15:15:32;101602.03;;;19.71;46.84
75938;BME280;64615;32.062;34.834;2023-02-13T15:18:06;101605.97;;;19.68;46.92
75938;BME280;64615;32.062;34.834;2023-02-13T15:20:36;101605.97;;;19.68;46.91
75938;BME280;64615;32.062;34.834;2023-02-13T15:23:02;101617.84;;;19.67;46.93
75938;BME280;64615;32.062;34.834;2023-02-13T15:25:33;101610.78;;;19.66;46.64
75938;BME280;64615;32.062;34.834;2023-02-13T15:28:03;101620.53;;;19.67;46.67
75938;BME280;64615;32.062;34.834;2023-02-13T15:30:34;101619.09;;;19.65;46.53